EZY375 EGKK-EDDH
Flight info
| Callsign | EZY375 |
|---|---|
| Flight time | 1h 18m |
| Altitude | 37000 |
| Route | FRANE M604 PAAVO Q295 SOMVA DCT MAVAS DCT TULIP Y12 SPY N873 ANDIK M105 RIBSO RIBSO3S |
| Aircraft | A320/M-SDE3FGHIRWY/LB1 |
Departure
| Time | 2026-04-23 18:02 |
|---|---|
| Airport | London Gatwick Airport (EGKK) |
Arrival
| Time | 2026-04-23 19:20 |
|---|---|
| Airport | Hamburg Helmut Schmidt Airport (EDDH) |
| Time | Latitude | Longitude | Altitude | Speed | Heading |
|---|---|---|---|---|---|
| 2026-04-23 17:28 | 51.15584 | -0.17681 | 213 ft | 0 kts | 347° |
| 2026-04-23 17:49 | 51.15580 | -0.17680 | 214 ft | 2 kts | 347° |
| 2026-04-23 17:49 | 51.15561 | -0.17673 | 213 ft | 3 kts | 347° |
| 2026-04-23 17:50 | 51.15541 | -0.17667 | 209 ft | 3 kts | 346° |
| 2026-04-23 17:50 | 51.15521 | -0.17635 | 213 ft | 2 kts | 258° |
| 2026-04-23 17:50 | 51.15524 | -0.17616 | 216 ft | 3 kts | 257° |
| 2026-04-23 17:51 | 51.15525 | -0.17603 | 213 ft | 0 kts | 257° |
| 2026-04-23 17:53 | 51.15521 | -0.17636 | 204 ft | 5 kts | 258° |
| 2026-04-23 17:53 | 51.15512 | -0.17699 | 206 ft | 6 kts | 257° |
| 2026-04-23 17:53 | 51.15505 | -0.17753 | 204 ft | 5 kts | 258° |
| 2026-04-23 17:54 | 51.15496 | -0.17819 | 204 ft | 6 kts | 258° |
| 2026-04-23 17:54 | 51.15484 | -0.17906 | 208 ft | 8 kts | 257° |
| 2026-04-23 17:54 | 51.15461 | -0.18067 | 210 ft | 8 kts | 257° |
| 2026-04-23 17:55 | 51.15427 | -0.18258 | 208 ft | 10 kts | 229° |
| 2026-04-23 17:55 | 51.15360 | -0.18266 | 204 ft | 10 kts | 168° |
| 2026-04-23 17:55 | 51.15284 | -0.18239 | 204 ft | 12 kts | 167° |
| 2026-04-23 17:56 | 51.15210 | -0.18229 | 211 ft | 10 kts | 201° |
| 2026-04-23 17:56 | 51.15154 | -0.18553 | 209 ft | 21 kts | 257° |
| 2026-04-23 17:56 | 51.15123 | -0.18773 | 206 ft | 20 kts | 258° |
| 2026-04-23 17:57 | 51.15096 | -0.18979 | 213 ft | 18 kts | 258° |
| 2026-04-23 17:57 | 51.15070 | -0.19167 | 212 ft | 17 kts | 257° |
| 2026-04-23 17:57 | 51.15022 | -0.19514 | 204 ft | 18 kts | 257° |
| 2026-04-23 17:58 | 51.14996 | -0.19707 | 210 ft | 17 kts | 257° |
| 2026-04-23 17:58 | 51.14970 | -0.19891 | 213 ft | 17 kts | 258° |
| 2026-04-23 17:58 | 51.14944 | -0.20076 | 209 ft | 17 kts | 257° |
| 2026-04-23 17:58 | 51.14920 | -0.20253 | 203 ft | 17 kts | 258° |
| 2026-04-23 17:59 | 51.14887 | -0.20495 | 203 ft | 26 kts | 257° |
| 2026-04-23 17:59 | 51.14850 | -0.20766 | 206 ft | 24 kts | 257° |
| 2026-04-23 17:59 | 51.14815 | -0.21015 | 204 ft | 22 kts | 257° |
| 2026-04-23 17:59 | 51.14777 | -0.21226 | 206 ft | 18 kts | 257° |
| 2026-04-23 18:00 | 51.14736 | -0.21392 | 210 ft | 15 kts | 209° |
| 2026-04-23 18:00 | 51.14650 | -0.21345 | 211 ft | 14 kts | 148° |
| 2026-04-23 18:00 | 51.14562 | -0.21297 | 205 ft | 13 kts | 151° |
| 2026-04-23 18:00 | 51.14522 | -0.21154 | 202 ft | 15 kts | 79° |
| 2026-04-23 18:01 | 51.14528 | -0.21112 | 212 ft | 0 kts | 77° |
| 2026-04-23 18:01 | 51.14529 | -0.21106 | 211 ft | 4 kts | 77° |
| 2026-04-23 18:01 | 51.14576 | -0.20764 | 205 ft | 68 kts | 77° |
| 2026-04-23 18:01 | 51.14725 | -0.19690 | 208 ft | 128 kts | 77° |
| 2026-04-23 18:02 | 51.14867 | -0.18671 | 330 ft | 148 kts | 76° |
| 2026-04-23 18:02 | 51.15150 | -0.16583 | 1446 ft | 143 kts | 78° |
| 2026-04-23 18:02 | 51.15373 | -0.14950 | 1986 ft | 161 kts | 78° |
| 2026-04-23 18:02 | 51.15630 | -0.13096 | 2390 ft | 184 kts | 79° |
| 2026-04-23 18:03 | 51.15910 | -0.11002 | 2859 ft | 207 kts | 79° |
| 2026-04-23 18:03 | 51.16233 | -0.08608 | 3402 ft | 230 kts | 79° |
| 2026-04-23 18:03 | 51.16588 | -0.06031 | 4183 ft | 243 kts | 79° |
| 2026-04-23 18:03 | 51.16920 | -0.03374 | 4720 ft | 250 kts | 85° |
| 2026-04-23 18:04 | 51.16974 | -0.00619 | 4988 ft | 250 kts | 91° |
| 2026-04-23 18:04 | 51.16903 | 0.02159 | 5088 ft | 251 kts | 93° |
| 2026-04-23 18:04 | 51.16815 | 0.04937 | 5072 ft | 250 kts | 92° |
| 2026-04-23 18:04 | 51.16735 | 0.07699 | 5065 ft | 249 kts | 92° |
| 2026-04-23 18:05 | 51.16665 | 0.10451 | 5072 ft | 249 kts | 92° |
| 2026-04-23 18:05 | 51.16603 | 0.13208 | 5074 ft | 249 kts | 92° |
| 2026-04-23 18:05 | 51.16547 | 0.15970 | 5076 ft | 249 kts | 91° |
| 2026-04-23 18:05 | 51.16536 | 0.18759 | 5705 ft | 252 kts | 90° |
| 2026-04-23 18:06 | 51.16545 | 0.21565 | 6712 ft | 255 kts | 90° |
| 2026-04-23 18:06 | 51.16556 | 0.24421 | 7607 ft | 260 kts | 90° |
| 2026-04-23 18:06 | 51.16567 | 0.27321 | 8523 ft | 263 kts | 89° |
| 2026-04-23 18:06 | 51.16578 | 0.30251 | 9472 ft | 266 kts | 89° |
| 2026-04-23 18:07 | 51.16586 | 0.33217 | 10383 ft | 270 kts | 89° |
| 2026-04-23 18:07 | 51.16591 | 0.36228 | 11205 ft | 274 kts | 89° |
| 2026-04-23 18:07 | 51.16593 | 0.39278 | 12059 ft | 277 kts | 90° |
| 2026-04-23 18:07 | 51.16593 | 0.42369 | 12893 ft | 280 kts | 90° |
| 2026-04-23 18:08 | 51.16594 | 0.44427 | 13441 ft | 282 kts | 90° |
| 2026-04-23 18:08 | 51.16629 | 0.48641 | 14501 ft | 287 kts | 84° |
| 2026-04-23 18:08 | 51.17187 | 0.51678 | 15153 ft | 294 kts | 64° |
| 2026-04-23 18:08 | 51.18455 | 0.54269 | 15824 ft | 303 kts | 43° |
| 2026-04-23 18:09 | 51.20305 | 0.55958 | 16473 ft | 315 kts | 22° |
| 2026-04-23 18:09 | 51.22497 | 0.56916 | 16634 ft | 339 kts | 17° |
| 2026-04-23 18:09 | 51.24866 | 0.57811 | 16856 ft | 357 kts | 15° |
| 2026-04-23 18:09 | 51.27319 | 0.58686 | 17389 ft | 365 kts | 15° |
| 2026-04-23 18:10 | 51.29814 | 0.59565 | 18016 ft | 369 kts | 15° |
| 2026-04-23 18:10 | 51.32337 | 0.60468 | 18651 ft | 374 kts | 15° |
| 2026-04-23 18:10 | 51.34889 | 0.61402 | 19163 ft | 379 kts | 15° |
| 2026-04-23 18:10 | 51.37475 | 0.62365 | 19680 ft | 384 kts | 15° |
| 2026-04-23 18:11 | 51.40105 | 0.63355 | 20207 ft | 389 kts | 16° |
| 2026-04-23 18:11 | 51.42748 | 0.64356 | 20738 ft | 393 kts | 15° |
| 2026-04-23 18:11 | 51.45426 | 0.65369 | 21251 ft | 398 kts | 15° |
| 2026-04-23 18:11 | 51.48134 | 0.66396 | 21758 ft | 402 kts | 15° |
| 2026-04-23 18:12 | 51.50869 | 0.67440 | 22248 ft | 406 kts | 15° |
| 2026-04-23 18:12 | 51.53635 | 0.68495 | 22735 ft | 411 kts | 15° |
| 2026-04-23 18:12 | 51.56429 | 0.69564 | 23232 ft | 415 kts | 16° |
| 2026-04-23 18:12 | 51.59259 | 0.70649 | 23697 ft | 419 kts | 15° |
| 2026-04-23 18:13 | 51.61142 | 0.71370 | 23989 ft | 422 kts | 15° |
| 2026-04-23 18:13 | 51.64021 | 0.72471 | 24381 ft | 426 kts | 15° |
| 2026-04-23 18:13 | 51.66921 | 0.73574 | 24787 ft | 430 kts | 15° |
| 2026-04-23 18:13 | 51.69839 | 0.74681 | 25175 ft | 433 kts | 15° |
| 2026-04-23 18:14 | 51.72791 | 0.75805 | 25564 ft | 437 kts | 16° |
| 2026-04-23 18:14 | 51.75760 | 0.76936 | 25950 ft | 440 kts | 16° |
| 2026-04-23 18:14 | 51.78729 | 0.78167 | 26332 ft | 442 kts | 21° |
| 2026-04-23 18:14 | 51.81572 | 0.80028 | 26701 ft | 441 kts | 30° |
| 2026-04-23 18:15 | 51.84201 | 0.82572 | 27060 ft | 440 kts | 39° |
| 2026-04-23 18:15 | 51.86540 | 0.85742 | 27418 ft | 437 kts | 51° |
| 2026-04-23 18:15 | 51.88283 | 0.89699 | 27778 ft | 429 kts | 69° |
| 2026-04-23 18:15 | 51.89216 | 0.94221 | 28140 ft | 420 kts | 86° |
| 2026-04-23 18:16 | 51.89366 | 0.98902 | 28492 ft | 416 kts | 95° |
| 2026-04-23 18:16 | 51.89484 | 1.03618 | 28847 ft | 423 kts | 89° |
| 2026-04-23 18:16 | 51.89918 | 1.08349 | 29213 ft | 430 kts | 82° |
| 2026-04-23 18:17 | 51.91893 | 1.17642 | 29932 ft | 439 kts | 76° |
| 2026-04-23 18:17 | 51.92385 | 1.22437 | 30257 ft | 426 kts | 98° |
| 2026-04-23 18:17 | 51.91752 | 1.27029 | 30569 ft | 415 kts | 119° |
| 2026-04-23 18:17 | 51.90141 | 1.30734 | 30837 ft | 407 kts | 140° |
| 2026-04-23 18:18 | 51.87757 | 1.33125 | 31089 ft | 404 kts | 161° |
| 2026-04-23 18:18 | 51.84984 | 1.33788 | 31345 ft | 408 kts | 182° |
| 2026-04-23 18:18 | 51.82220 | 1.32614 | 31593 ft | 418 kts | 204° |
| 2026-04-23 18:18 | 51.79817 | 1.29885 | 31842 ft | 429 kts | 218° |
| 2026-04-23 18:19 | 51.77798 | 1.26279 | 32112 ft | 437 kts | 228° |
| 2026-04-23 18:19 | 51.76128 | 1.22134 | 32495 ft | 442 kts | 236° |
| 2026-04-23 18:19 | 51.74814 | 1.17619 | 32866 ft | 448 kts | 243° |
| 2026-04-23 18:19 | 51.73994 | 1.12735 | 33221 ft | 457 kts | 257° |
| 2026-04-23 18:20 | 51.73967 | 1.07560 | 33574 ft | 468 kts | 273° |
| 2026-04-23 18:20 | 51.74851 | 1.02463 | 33917 ft | 479 kts | 291° |
| 2026-04-23 18:20 | 51.76632 | 0.97975 | 34257 ft | 487 kts | 310° |
| 2026-04-23 18:20 | 51.79220 | 0.94439 | 34594 ft | 490 kts | 328° |
| 2026-04-23 18:21 | 51.82383 | 0.92247 | 34939 ft | 489 kts | 347° |
| 2026-04-23 18:21 | 51.85732 | 0.91656 | 35261 ft | 484 kts | 6° |
| 2026-04-23 18:21 | 51.89001 | 0.92674 | 35595 ft | 476 kts | 24° |
| 2026-04-23 18:21 | 51.91897 | 0.95132 | 35925 ft | 465 kts | 41° |
| 2026-04-23 18:22 | 51.94174 | 0.98664 | 36212 ft | 454 kts | 57° |
| 2026-04-23 18:22 | 51.95758 | 1.03004 | 36506 ft | 443 kts | 72° |
| 2026-04-23 18:22 | 51.96836 | 1.07668 | 36768 ft | 441 kts | 74° |
| 2026-04-23 18:22 | 51.97886 | 1.12344 | 37028 ft | 441 kts | 74° |
| 2026-04-23 18:23 | 51.98929 | 1.17032 | 37289 ft | 441 kts | 74° |
| 2026-04-23 18:23 | 52.01002 | 1.26380 | 37443 ft | 439 kts | 74° |
| 2026-04-23 18:24 | 52.04088 | 1.40285 | 37434 ft | 438 kts | 74° |
| 2026-04-23 18:25 | 52.07167 | 1.54261 | 37444 ft | 438 kts | 75° |
| 2026-04-23 18:25 | 52.09208 | 1.63585 | 37443 ft | 438 kts | 75° |
| 2026-04-23 18:26 | 52.11247 | 1.72917 | 37447 ft | 438 kts | 75° |
| 2026-04-23 18:26 | 52.13282 | 1.82257 | 37444 ft | 438 kts | 75° |
| 2026-04-23 18:27 | 52.15309 | 1.91620 | 37442 ft | 438 kts | 75° |
| 2026-04-23 18:27 | 52.17319 | 2.00973 | 37434 ft | 438 kts | 75° |
| 2026-04-23 18:28 | 52.19326 | 2.10362 | 37435 ft | 438 kts | 75° |
| 2026-04-23 18:28 | 52.21330 | 2.19752 | 37432 ft | 439 kts | 75° |
| 2026-04-23 18:29 | 52.23330 | 2.29154 | 37435 ft | 439 kts | 75° |
| 2026-04-23 18:29 | 52.25318 | 2.38580 | 37432 ft | 439 kts | 75° |
| 2026-04-23 18:30 | 52.27306 | 2.48004 | 37414 ft | 439 kts | 75° |
| 2026-04-23 18:30 | 52.29306 | 2.57376 | 37417 ft | 440 kts | 75° |
| 2026-04-23 18:31 | 52.31328 | 2.66841 | 37430 ft | 441 kts | 75° |
| 2026-04-23 18:31 | 52.33337 | 2.76308 | 37430 ft | 441 kts | 75° |
| 2026-04-23 18:32 | 52.35332 | 2.85805 | 37442 ft | 442 kts | 75° |
| 2026-04-23 18:32 | 52.37325 | 2.95338 | 37441 ft | 442 kts | 76° |
| 2026-04-23 18:33 | 52.39301 | 3.04860 | 37439 ft | 442 kts | 75° |
| 2026-04-23 18:33 | 52.41273 | 3.14378 | 37449 ft | 441 kts | 75° |
| 2026-04-23 18:34 | 52.43241 | 3.23895 | 37451 ft | 441 kts | 75° |
| 2026-04-23 18:34 | 52.45200 | 3.33413 | 37450 ft | 441 kts | 76° |
| 2026-04-23 18:35 | 52.47133 | 3.42876 | 37446 ft | 440 kts | 76° |
| 2026-04-23 18:35 | 52.49071 | 3.52412 | 37428 ft | 441 kts | 75° |
| 2026-04-23 18:36 | 52.51007 | 3.61959 | 37433 ft | 441 kts | 75° |
| 2026-04-23 18:36 | 52.52934 | 3.71521 | 37440 ft | 441 kts | 75° |
| 2026-04-23 18:37 | 52.54856 | 3.81093 | 37443 ft | 441 kts | 75° |
| 2026-04-23 18:37 | 52.56766 | 3.90689 | 37445 ft | 441 kts | 75° |
| 2026-04-23 18:38 | 52.58669 | 4.00294 | 37431 ft | 442 kts | 75° |
| 2026-04-23 18:38 | 52.60579 | 4.09938 | 37456 ft | 443 kts | 75° |
| 2026-04-23 18:39 | 52.62481 | 4.19575 | 37457 ft | 442 kts | 75° |
| 2026-04-23 18:39 | 52.64363 | 4.29214 | 37450 ft | 441 kts | 76° |
| 2026-04-23 18:40 | 52.66231 | 4.38838 | 37447 ft | 441 kts | 76° |
| 2026-04-23 18:40 | 52.68082 | 4.48387 | 37440 ft | 441 kts | 76° |
| 2026-04-23 18:41 | 52.69913 | 4.57874 | 37434 ft | 441 kts | 76° |
| 2026-04-23 18:41 | 52.71758 | 4.67522 | 37431 ft | 441 kts | 76° |
| 2026-04-23 18:42 | 52.73603 | 4.77182 | 37426 ft | 441 kts | 76° |
| 2026-04-23 18:42 | 52.75429 | 4.86801 | 37424 ft | 442 kts | 76° |
| 2026-04-23 18:43 | 52.77257 | 4.96483 | 37428 ft | 442 kts | 76° |
| 2026-04-23 18:43 | 52.79079 | 5.06173 | 37422 ft | 442 kts | 76° |
| 2026-04-23 18:44 | 52.80890 | 5.15871 | 37426 ft | 441 kts | 76° |
| 2026-04-23 18:44 | 52.82694 | 5.25574 | 37426 ft | 441 kts | 76° |
| 2026-04-23 18:45 | 52.84491 | 5.35285 | 37438 ft | 441 kts | 76° |
| 2026-04-23 18:45 | 52.86279 | 5.45003 | 37434 ft | 441 kts | 76° |
| 2026-04-23 18:46 | 52.88065 | 5.54782 | 37414 ft | 446 kts | 76° |
| 2026-04-23 18:46 | 52.89872 | 5.64742 | 37414 ft | 456 kts | 75° |
| 2026-04-23 18:47 | 52.91698 | 5.74832 | 37407 ft | 458 kts | 76° |
| 2026-04-23 18:47 | 52.93527 | 5.84970 | 37407 ft | 458 kts | 76° |
| 2026-04-23 18:48 | 52.95341 | 5.95098 | 37402 ft | 458 kts | 76° |
| 2026-04-23 18:48 | 52.97143 | 6.05239 | 37405 ft | 458 kts | 76° |
| 2026-04-23 18:49 | 52.98941 | 6.15393 | 37398 ft | 459 kts | 76° |
| 2026-04-23 18:49 | 53.00717 | 6.25486 | 37407 ft | 458 kts | 76° |
| 2026-04-23 18:50 | 53.02213 | 6.34002 | 37405 ft | 458 kts | 76° |
| 2026-04-23 18:50 | 53.04273 | 6.45814 | 37404 ft | 458 kts | 76° |
| 2026-04-23 18:51 | 53.06026 | 6.56002 | 37392 ft | 458 kts | 76° |
| 2026-04-23 18:51 | 53.07778 | 6.66193 | 37389 ft | 458 kts | 76° |
| 2026-04-23 18:52 | 53.09531 | 6.76395 | 37385 ft | 458 kts | 76° |
| 2026-04-23 18:52 | 53.11263 | 6.86556 | 37385 ft | 458 kts | 76° |
| 2026-04-23 18:53 | 53.12987 | 6.96789 | 37382 ft | 459 kts | 76° |
| 2026-04-23 18:53 | 53.14700 | 7.07020 | 37371 ft | 459 kts | 76° |
| 2026-04-23 18:54 | 53.16846 | 7.17007 | 37223 ft | 459 kts | 64° |
| 2026-04-23 18:54 | 53.18277 | 7.21682 | 36610 ft | 457 kts | 64° |
| 2026-04-23 18:54 | 53.19734 | 7.26391 | 36270 ft | 458 kts | 63° |
| 2026-04-23 18:54 | 53.21208 | 7.31128 | 36017 ft | 461 kts | 63° |
| 2026-04-23 18:55 | 53.22693 | 7.35898 | 35767 ft | 463 kts | 64° |
| 2026-04-23 18:55 | 53.24183 | 7.40701 | 34940 ft | 470 kts | 64° |
| 2026-04-23 18:55 | 53.25680 | 7.45564 | 34165 ft | 470 kts | 64° |
| 2026-04-23 18:55 | 53.27166 | 7.50414 | 33674 ft | 469 kts | 64° |
| 2026-04-23 18:56 | 53.28149 | 7.53635 | 33259 ft | 469 kts | 64° |
| 2026-04-23 18:56 | 53.30123 | 7.60112 | 32563 ft | 463 kts | 64° |
| 2026-04-23 18:56 | 53.31574 | 7.64879 | 31938 ft | 459 kts | 64° |
| 2026-04-23 18:56 | 53.33012 | 7.69607 | 31320 ft | 456 kts | 64° |
| 2026-04-23 18:57 | 53.34466 | 7.74395 | 30668 ft | 465 kts | 63° |
| 2026-04-23 18:57 | 53.35931 | 7.79238 | 30024 ft | 467 kts | 63° |
| 2026-04-23 18:57 | 53.37398 | 7.84105 | 29432 ft | 469 kts | 63° |
| 2026-04-23 18:57 | 53.38874 | 7.89006 | 28841 ft | 471 kts | 63° |
| 2026-04-23 18:58 | 53.40353 | 7.93916 | 28259 ft | 473 kts | 63° |
| 2026-04-23 18:58 | 53.41836 | 7.98836 | 27691 ft | 475 kts | 63° |
| 2026-04-23 18:58 | 53.42825 | 8.02128 | 27308 ft | 476 kts | 63° |
| 2026-04-23 18:58 | 53.44313 | 8.07083 | 26745 ft | 478 kts | 63° |
| 2026-04-23 18:59 | 53.45809 | 8.12085 | 26184 ft | 479 kts | 63° |
| 2026-04-23 18:59 | 53.47307 | 8.17114 | 25607 ft | 482 kts | 63° |
| 2026-04-23 18:59 | 53.49293 | 8.23800 | 24854 ft | 485 kts | 62° |
| 2026-04-23 18:59 | 53.50800 | 8.28883 | 24249 ft | 487 kts | 62° |
| 2026-04-23 19:00 | 53.51822 | 8.32331 | 23810 ft | 487 kts | 62° |
| 2026-04-23 19:00 | 53.53331 | 8.37432 | 23143 ft | 486 kts | 62° |
| 2026-04-23 19:00 | 53.54813 | 8.42462 | 22712 ft | 471 kts | 62° |
| 2026-04-23 19:00 | 53.56226 | 8.47281 | 22493 ft | 445 kts | 62° |
| 2026-04-23 19:01 | 53.57569 | 8.51870 | 21959 ft | 434 kts | 61° |
| 2026-04-23 19:01 | 53.58892 | 8.56390 | 20938 ft | 426 kts | 62° |
| 2026-04-23 19:01 | 53.60202 | 8.60859 | 20176 ft | 425 kts | 61° |
| 2026-04-23 19:01 | 53.61514 | 8.65330 | 19702 ft | 426 kts | 62° |
| 2026-04-23 19:02 | 53.62807 | 8.69738 | 19155 ft | 424 kts | 61° |
| 2026-04-23 19:02 | 53.64099 | 8.74174 | 18619 ft | 420 kts | 61° |
| 2026-04-23 19:02 | 53.65378 | 8.78576 | 18031 ft | 416 kts | 62° |
| 2026-04-23 19:02 | 53.66646 | 8.82941 | 17511 ft | 413 kts | 61° |
| 2026-04-23 19:03 | 53.67901 | 8.87259 | 17088 ft | 405 kts | 61° |
| 2026-04-23 19:03 | 53.69110 | 8.91448 | 16956 ft | 387 kts | 61° |
| 2026-04-23 19:03 | 53.70242 | 8.95405 | 16639 ft | 363 kts | 61° |
| 2026-04-23 19:03 | 53.71321 | 8.99187 | 15941 ft | 353 kts | 60° |
| 2026-04-23 19:04 | 53.72368 | 9.02843 | 15410 ft | 340 kts | 60° |
| 2026-04-23 19:04 | 53.73389 | 9.06395 | 14752 ft | 334 kts | 60° |
| 2026-04-23 19:04 | 53.74401 | 9.09914 | 14298 ft | 333 kts | 60° |
| 2026-04-23 19:04 | 53.75411 | 9.13437 | 13836 ft | 331 kts | 60° |
| 2026-04-23 19:05 | 53.76391 | 9.16876 | 13402 ft | 320 kts | 60° |
| 2026-04-23 19:05 | 53.77348 | 9.20234 | 13006 ft | 316 kts | 60° |
| 2026-04-23 19:05 | 53.78300 | 9.23577 | 12584 ft | 315 kts | 60° |
| 2026-04-23 19:05 | 53.79244 | 9.26898 | 12167 ft | 313 kts | 60° |
| 2026-04-23 19:06 | 53.80190 | 9.30218 | 11744 ft | 312 kts | 60° |
| 2026-04-23 19:06 | 53.81101 | 9.33546 | 11331 ft | 313 kts | 65° |
| 2026-04-23 19:06 | 53.81650 | 9.37109 | 11095 ft | 313 kts | 74° |
| 2026-04-23 19:06 | 53.82076 | 9.40715 | 10953 ft | 312 kts | 73° |
| 2026-04-23 19:07 | 53.82507 | 9.44258 | 10767 ft | 311 kts | 73° |
| 2026-04-23 19:07 | 53.82954 | 9.47891 | 10600 ft | 311 kts | 73° |
| 2026-04-23 19:07 | 53.83392 | 9.51464 | 10420 ft | 307 kts | 73° |
| 2026-04-23 19:07 | 53.83809 | 9.54899 | 10287 ft | 297 kts | 73° |
| 2026-04-23 19:08 | 53.84218 | 9.58301 | 10258 ft | 294 kts | 73° |
| 2026-04-23 19:08 | 53.84621 | 9.61688 | 10138 ft | 292 kts | 73° |
| 2026-04-23 19:08 | 53.85022 | 9.65063 | 9747 ft | 290 kts | 73° |
| 2026-04-23 19:08 | 53.85419 | 9.68399 | 9349 ft | 289 kts | 73° |
| 2026-04-23 19:09 | 53.85814 | 9.71718 | 9063 ft | 284 kts | 73° |
| 2026-04-23 19:09 | 53.86196 | 9.74942 | 8925 ft | 273 kts | 73° |
| 2026-04-23 19:09 | 53.86559 | 9.78037 | 8802 ft | 263 kts | 73° |
| 2026-04-23 19:09 | 53.86659 | 9.81114 | 8607 ft | 263 kts | 90° |
| 2026-04-23 19:10 | 53.86445 | 9.84186 | 8292 ft | 262 kts | 91° |
| 2026-04-23 19:10 | 53.86228 | 9.87239 | 7966 ft | 260 kts | 91° |
| 2026-04-23 19:10 | 53.86015 | 9.90246 | 7612 ft | 259 kts | 91° |
| 2026-04-23 19:10 | 53.85800 | 9.93276 | 7297 ft | 259 kts | 91° |
| 2026-04-23 19:11 | 53.85587 | 9.96302 | 6965 ft | 258 kts | 90° |
| 2026-04-23 19:11 | 53.85373 | 9.99313 | 6637 ft | 257 kts | 91° |
| 2026-04-23 19:11 | 53.85158 | 10.02318 | 6349 ft | 256 kts | 90° |
| 2026-04-23 19:11 | 53.84945 | 10.05309 | 6207 ft | 256 kts | 91° |
| 2026-04-23 19:12 | 53.84730 | 10.08297 | 6104 ft | 255 kts | 90° |
| 2026-04-23 19:12 | 53.84516 | 10.11277 | 5997 ft | 255 kts | 90° |
| 2026-04-23 19:12 | 53.84302 | 10.14256 | 5895 ft | 255 kts | 90° |
| 2026-04-23 19:12 | 53.84229 | 10.17227 | 5797 ft | 257 kts | 79° |
| 2026-04-23 19:13 | 53.84454 | 10.20311 | 5692 ft | 261 kts | 75° |
| 2026-04-23 19:13 | 53.84717 | 10.23269 | 5590 ft | 249 kts | 75° |
| 2026-04-23 19:13 | 53.84946 | 10.26154 | 5485 ft | 249 kts | 81° |
| 2026-04-23 19:13 | 53.84609 | 10.29055 | 5247 ft | 258 kts | 112° |
| 2026-04-23 19:14 | 53.83477 | 10.31358 | 4988 ft | 259 kts | 140° |
| 2026-04-23 19:14 | 53.81973 | 10.32927 | 4861 ft | 251 kts | 163° |
| 2026-04-23 19:14 | 53.80307 | 10.32982 | 4721 ft | 235 kts | 206° |
| 2026-04-23 19:14 | 53.79045 | 10.31478 | 4497 ft | 219 kts | 235° |
| 2026-04-23 19:15 | 53.78066 | 10.29517 | 4193 ft | 219 kts | 239° |
| 2026-04-23 19:15 | 53.77108 | 10.27516 | 3929 ft | 219 kts | 239° |
| 2026-04-23 19:15 | 53.76142 | 10.25526 | 3695 ft | 218 kts | 238° |
| 2026-04-23 19:15 | 53.75183 | 10.23562 | 3599 ft | 218 kts | 239° |
| 2026-04-23 19:16 | 53.74220 | 10.21591 | 3351 ft | 217 kts | 238° |
| 2026-04-23 19:16 | 53.73252 | 10.19613 | 3068 ft | 219 kts | 239° |
| 2026-04-23 19:16 | 53.72279 | 10.17625 | 2776 ft | 220 kts | 238° |
| 2026-04-23 19:17 | 53.70363 | 10.13723 | 2191 ft | 210 kts | 239° |
| 2026-04-23 19:17 | 53.69458 | 10.11884 | 1926 ft | 197 kts | 240° |
| 2026-04-23 19:17 | 53.68605 | 10.10147 | 1643 ft | 188 kts | 239° |
| 2026-04-23 19:17 | 53.67807 | 10.08528 | 1396 ft | 170 kts | 239° |
| 2026-04-23 19:18 | 53.67111 | 10.07118 | 1172 ft | 149 kts | 239° |
| 2026-04-23 19:18 | 53.66477 | 10.05826 | 969 ft | 138 kts | 239° |
| 2026-04-23 19:18 | 53.65877 | 10.04600 | 785 ft | 133 kts | 238° |
| 2026-04-23 19:18 | 53.65298 | 10.03422 | 629 ft | 129 kts | 238° |
| 2026-04-23 19:19 | 53.64164 | 10.01121 | 269 ft | 126 kts | 237° |
| 2026-04-23 19:19 | 53.63608 | 9.99993 | 106 ft | 124 kts | 237° |
| 2026-04-23 19:20 | 53.62758 | 9.98257 | 43 ft | 54 kts | 231° |
| 2026-04-23 19:20 | 53.62568 | 9.97859 | 41 ft | 19 kts | 231° |
| 2026-04-23 19:20 | 53.62450 | 9.97816 | 42 ft | 17 kts | 141° |
| 2026-04-23 19:20 | 53.62431 | 9.97933 | 46 ft | 0 kts | 83° |
| 2026-04-23 19:21 | 53.62435 | 9.97975 | 43 ft | 0 kts | 77° |
| 2026-04-23 19:21 | 53.62437 | 9.97987 | 45 ft | 3 kts | 77° |
| 2026-04-23 19:22 | 53.62445 | 9.98031 | 47 ft | 4 kts | 69° |
| 2026-04-23 19:22 | 53.62474 | 9.98113 | 45 ft | 14 kts | 53° |
| 2026-04-23 19:22 | 53.62580 | 9.98328 | 47 ft | 10 kts | 51° |
| 2026-04-23 19:23 | 53.62618 | 9.98406 | 47 ft | 9 kts | 50° |
| 2026-04-23 19:23 | 53.62673 | 9.98517 | 47 ft | 13 kts | 50° |
| 2026-04-23 19:23 | 53.62728 | 9.98628 | 47 ft | 12 kts | 50° |
| 2026-04-23 19:24 | 53.62828 | 9.98831 | 47 ft | 11 kts | 50° |
| 2026-04-23 19:24 | 53.62874 | 9.98924 | 47 ft | 10 kts | 51° |
| 2026-04-23 19:24 | 53.62967 | 9.99112 | 47 ft | 10 kts | 50° |
| 2026-04-23 19:25 | 53.62991 | 9.99329 | 47 ft | 12 kts | 147° |
| 2026-04-23 19:25 | 53.62919 | 9.99310 | 47 ft | 5 kts | 246° |
| 2026-04-23 19:26 | 53.62903 | 9.99257 | 45 ft | 1 kts | 243° |
| 2026-04-23 19:26 | 53.62901 | 9.99252 | 46 ft | 0 kts | 242° |